sensor_id;sensor_type;location;lat;lon;timestamp;temperature;humidity
56308;DHT22;42217;50.422;7.210;2022-12-07T00:01:33;3.10;99.90
56308;DHT22;42217;50.422;7.210;2022-12-07T00:04:01;3.10;99.90
56308;DHT22;42217;50.422;7.210;2022-12-07T00:06:42;3.10;99.90
56308;DHT22;42217;50.422;7.210;2022-12-07T00:09:16;3.20;99.90
56308;DHT22;42217;50.422;7.210;2022-12-07T00:11:43;3.20;99.90
56308;DHT22;42217;50.422;7.210;2022-12-07T00:14:14;3.20;99.90
56308;DHT22;42217;50.422;7.210;2022-12-07T00:16:41;3.20;99.90
56308;DHT22;42217;50.422;7.210;2022-12-07T00:19:06;3.30;99.90
56308;DHT22;42217;50.422;7.210;2022-12-07T00:21:34;3.20;99.90
56308;DHT22;42217;50.422;7.210;2022-12-07T00:24:01;3.20;99.90
56308;DHT22;42217;50.422;7.210;2022-12-07T00:26:29;3.20;99.90
56308;DHT22;42217;50.422;7.210;2022-12-07T00:29:01;3.20;99.90
56308;DHT22;42217;50.422;7.210;2022-12-07T00:31:32;3.30;99.90
56308;DHT22;42217;50.422;7.210;2022-12-07T00:33:59;3.30;99.90
56308;DHT22;42217;50.422;7.210;2022-12-07T00:36:25;3.20;99.90
56308;DHT22;42217;50.422;7.210;2022-12-07T00:38:52;3.30;99.90
56308;DHT22;42217;50.422;7.210;2022-12-07T00:41:20;3.20;99.90
56308;DHT22;42217;50.422;7.210;2022-12-07T00:43:47;3.20;99.90
56308;DHT22;42217;50.422;7.210;2022-12-07T00:46:14;3.20;99.90
56308;DHT22;42217;50.422;7.210;2022-12-07T00:48:40;3.10;99.90
56308;DHT22;42217;50.422;7.210;2022-12-07T00:51:07;3.10;99.90
56308;DHT22;42217;50.422;7.210;2022-12-07T00:53:36;3.10;99.90
56308;DHT22;42217;50.422;7.210;2022-12-07T00:56:12;3.00;99.90
56308;DHT22;42217;50.422;7.210;2022-12-07T00:58:38;3.10;99.90
56308;DHT22;42217;50.422;7.210;2022-12-07T01:01:05;3.10;99.90
56308;DHT22;42217;50.422;7.210;2022-12-07T01:03:32;3.10;99.90
56308;DHT22;42217;50.422;7.210;2022-12-07T01:05:58;3.00;99.90
56308;DHT22;42217;50.422;7.210;2022-12-07T01:08:25;3.00;99.90
56308;DHT22;42217;50.422;7.210;2022-12-07T01:11:07;3.00;99.90
56308;DHT22;42217;50.422;7.210;2022-12-07T01:13:34;3.00;99.90
56308;DHT22;42217;50.422;7.210;2022-12-07T01:16:03;3.00;99.90
56308;DHT22;42217;50.422;7.210;2022-12-07T01:18:30;3.10;99.90
56308;DHT22;42217;50.422;7.210;2022-12-07T01:20:58;3.10;99.90
56308;DHT22;42217;50.422;7.210;2022-12-07T01:23:24;3.20;99.90
56308;DHT22;42217;50.422;7.210;2022-12-07T01:26:02;3.20;99.90
56308;DHT22;42217;50.422;7.210;2022-12-07T01:28:28;3.20;99.90
56308;DHT22;42217;50.422;7.210;2022-12-07T01:31:09;3.20;99.90
56308;DHT22;42217;50.422;7.210;2022-12-07T01:33:39;3.20;99.90
56308;DHT22;42217;50.422;7.210;2022-12-07T01:36:31;3.20;99.90
56308;DHT22;42217;50.422;7.210;2022-12-07T01:39:03;3.20;99.90
56308;DHT22;42217;50.422;7.210;2022-12-07T01:41:31;3.30;99.90
56308;DHT22;42217;50.422;7.210;2022-12-07T01:46:34;3.30;99.90
56308;DHT22;42217;50.422;7.210;2022-12-07T01:49:00;3.30;99.90
56308;DHT22;42217;50.422;7.210;2022-12-07T01:51:26;3.30;99.90
56308;DHT22;42217;50.422;7.210;2022-12-07T01:53:53;3.40;99.90
56308;DHT22;42217;50.422;7.210;2022-12-07T01:56:21;3.40;99.90
56308;DHT22;42217;50.422;7.210;2022-12-07T01:58:49;3.40;99.90
56308;DHT22;42217;50.422;7.210;2022-12-07T02:01:16;3.40;99.90
56308;DHT22;42217;50.422;7.210;2022-12-07T02:03:43;3.30;99.90
56308;DHT22;42217;50.422;7.210;2022-12-07T02:06:13;3.30;99.90
56308;DHT22;42217;50.422;7.210;2022-12-07T02:08:41;3.30;99.90
56308;DHT22;42217;50.422;7.210;2022-12-07T02:11:08;3.20;99.90
56308;DHT22;42217;50.422;7.210;2022-12-07T02:13:36;3.20;99.90
56308;DHT22;42217;50.422;7.210;2022-12-07T02:16:23;3.30;99.90
56308;DHT22;42217;50.422;7.210;2022-12-07T02:21:51;3.30;99.90
56308;DHT22;42217;50.422;7.210;2022-12-07T02:30:10;3.20;99.90
56308;DHT22;42217;50.422;7.210;2022-12-07T02:35:44;3.30;99.90
56308;DHT22;42217;50.422;7.210;2022-12-07T02:41:02;3.30;99.90
56308;DHT22;42217;50.422;7.210;2022-12-07T02:43:57;3.30;99.90
56308;DHT22;42217;50.422;7.210;2022-12-07T02:46:38;3.30;99.90
56308;DHT22;42217;50.422;7.210;2022-12-07T02:49:07;3.30;99.90
56308;DHT22;42217;50.422;7.210;2022-12-07T02:51:34;3.40;99.90
56308;DHT22;42217;50.422;7.210;2022-12-07T02:54:18;3.40;99.90
56308;DHT22;42217;50.422;7.210;2022-12-07T03:05:59;3.40;99.90
56308;DHT22;42217;50.422;7.210;2022-12-07T03:16:26;3.40;99.90
56308;DHT22;42217;50.422;7.210;2022-12-07T03:18:56;3.40;99.90
56308;DHT22;42217;50.422;7.210;2022-12-07T03:21:31;3.40;99.90
56308;DHT22;42217;50.422;7.210;2022-12-07T03:23:59;3.40;99.90
56308;DHT22;42217;50.422;7.210;2022-12-07T03:26:33;3.40;99.90
56308;DHT22;42217;50.422;7.210;2022-12-07T03:29:06;3.40;99.90
56308;DHT22;42217;50.422;7.210;2022-12-07T03:31:37;3.30;99.90
56308;DHT22;42217;50.422;7.210;2022-12-07T03:34:15;3.40;99.90
56308;DHT22;42217;50.422;7.210;2022-12-07T03:36:45;3.30;99.90
56308;DHT22;42217;50.422;7.210;2022-12-07T03:41:54;3.30;99.90
56308;DHT22;42217;50.422;7.210;2022-12-07T03:44:22;3.30;99.90
56308;DHT22;42217;50.422;7.210;2022-12-07T03:49:40;3.30;99.90
56308;DHT22;42217;50.422;7.210;2022-12-07T03:52:29;3.30;99.90
56308;DHT22;42217;50.422;7.210;2022-12-07T03:55:27;3.30;99.90
56308;DHT22;42217;50.422;7.210;2022-12-07T03:58:00;3.30;99.90
56308;DHT22;42217;50.422;7.210;2022-12-07T04:00:28;3.30;99.90
56308;DHT22;42217;50.422;7.210;2022-12-07T04:02:55;3.30;99.90
56308;DHT22;42217;50.422;7.210;2022-12-07T04:05:21;3.30;99.90
56308;DHT22;42217;50.422;7.210;2022-12-07T04:07:47;3.40;99.90
56308;DHT22;42217;50.422;7.210;2022-12-07T04:10:13;3.40;99.90
56308;DHT22;42217;50.422;7.210;2022-12-07T04:12:39;3.30;99.90
56308;DHT22;42217;50.422;7.210;2022-12-07T04:15:05;3.30;99.90
56308;DHT22;42217;50.422;7.210;2022-12-07T04:17:31;3.30;99.90
56308;DHT22;42217;50.422;7.210;2022-12-07T04:19:57;3.30;99.90
56308;DHT22;42217;50.422;7.210;2022-12-07T04:22:23;3.20;99.90
56308;DHT22;42217;50.422;7.210;2022-12-07T04:24:49;3.20;99.90
56308;DHT22;42217;50.422;7.210;2022-12-07T04:27:15;3.20;99.90
56308;DHT22;42217;50.422;7.210;2022-12-07T04:29:43;3.20;99.90
56308;DHT22;42217;50.422;7.210;2022-12-07T04:32:09;3.20;99.90
56308;DHT22;42217;50.422;7.210;2022-12-07T04:34:34;3.20;99.90
56308;DHT22;42217;50.422;7.210;2022-12-07T04:37:00;3.20;99.90
56308;DHT22;42217;50.422;7.210;2022-12-07T04:39:29;3.20;99.90
56308;DHT22;42217;50.422;7.210;2022-12-07T04:41:55;3.20;99.90
56308;DHT22;42217;50.422;7.210;2022-12-07T04:44:21;3.20;99.90
56308;DHT22;42217;50.422;7.210;2022-12-07T04:46:47;3.20;99.90
56308;DHT22;42217;50.422;7.210;2022-12-07T04:49:14;3.20;99.90
56308;DHT22;42217;50.422;7.210;2022-12-07T04:51:41;3.20;99.90
56308;DHT22;42217;50.422;7.210;2022-12-07T04:54:07;3.20;99.90
56308;DHT22;42217;50.422;7.210;2022-12-07T04:56:33;3.20;99.90
56308;DHT22;42217;50.422;7.210;2022-12-07T04:59:00;3.20;99.90
56308;DHT22;42217;50.422;7.210;2022-12-07T05:01:26;3.30;99.90
56308;DHT22;42217;50.422;7.210;2022-12-07T05:03:52;3.30;99.90
56308;DHT22;42217;50.422;7.210;2022-12-07T05:06:18;3.30;99.90
56308;DHT22;42217;50.422;7.210;2022-12-07T05:08:43;3.30;99.90
56308;DHT22;42217;50.422;7.210;2022-12-07T05:11:10;3.30;99.90
56308;DHT22;42217;50.422;7.210;2022-12-07T05:13:54;3.40;99.90
56308;DHT22;42217;50.422;7.210;2022-12-07T05:16:20;3.40;99.90
56308;DHT22;42217;50.422;7.210;2022-12-07T05:18:46;3.50;99.90
56308;DHT22;42217;50.422;7.210;2022-12-07T05:21:11;3.50;99.90
56308;DHT22;42217;50.422;7.210;2022-12-07T05:23:37;3.50;99.90
56308;DHT22;42217;50.422;7.210;2022-12-07T05:26:03;3.50;99.90
56308;DHT22;42217;50.422;7.210;2022-12-07T05:28:28;3.50;99.90
56308;DHT22;42217;50.422;7.210;2022-12-07T05:30:54;3.50;99.90
56308;DHT22;42217;50.422;7.210;2022-12-07T05:33:19;3.50;99.90
56308;DHT22;42217;50.422;7.210;2022-12-07T05:35:45;3.40;99.90
56308;DHT22;42217;50.422;7.210;2022-12-07T05:38:11;3.30;99.90
56308;DHT22;42217;50.422;7.210;2022-12-07T05:40:37;3.30;99.90
56308;DHT22;42217;50.422;7.210;2022-12-07T05:43:02;3.30;99.90
56308;DHT22;42217;50.422;7.210;2022-12-07T05:45:28;3.30;99.90
56308;DHT22;42217;50.422;7.210;2022-12-07T05:47:54;3.30;99.90
56308;DHT22;42217;50.422;7.210;2022-12-07T05:50:19;3.30;99.90
56308;DHT22;42217;50.422;7.210;2022-12-07T05:52:45;3.30;99.90
56308;DHT22;42217;50.422;7.210;2022-12-07T05:55:11;3.30;99.90
56308;DHT22;42217;50.422;7.210;2022-12-07T05:57:36;3.40;99.90
56308;DHT22;42217;50.422;7.210;2022-12-07T06:00:04;3.40;99.90
56308;DHT22;42217;50.422;7.210;2022-12-07T06:02:30;3.40;99.90
56308;DHT22;42217;50.422;7.210;2022-12-07T06:04:55;3.40;99.90
56308;DHT22;42217;50.422;7.210;2022-12-07T06:07:21;3.30;99.90
56308;DHT22;42217;50.422;7.210;2022-12-07T06:09:47;3.30;99.90
56308;DHT22;42217;50.422;7.210;2022-12-07T06:12:13;3.30;99.90
56308;DHT22;42217;50.422;7.210;2022-12-07T06:14:58;3.30;99.90
56308;DHT22;42217;50.422;7.210;2022-12-07T06:17:24;3.30;99.90
56308;DHT22;42217;50.422;7.210;2022-12-07T06:19:50;3.40;99.90
56308;DHT22;42217;50.422;7.210;2022-12-07T06:22:16;3.40;99.90
56308;DHT22;42217;50.422;7.210;2022-12-07T06:24:42;3.40;99.90
56308;DHT22;42217;50.422;7.210;2022-12-07T06:27:08;3.40;99.90
56308;DHT22;42217;50.422;7.210;2022-12-07T06:29:34;3.40;99.90
56308;DHT22;42217;50.422;7.210;2022-12-07T06:31:59;3.30;99.90
56308;DHT22;42217;50.422;7.210;2022-12-07T06:34:26;3.30;99.90
56308;DHT22;42217;50.422;7.210;2022-12-07T06:36:52;3.30;99.90
56308;DHT22;42217;50.422;7.210;2022-12-07T06:39:22;3.30;99.90
56308;DHT22;42217;50.422;7.210;2022-12-07T06:41:48;3.30;99.90
56308;DHT22;42217;50.422;7.210;2022-12-07T06:44:14;3.30;99.90
56308;DHT22;42217;50.422;7.210;2022-12-07T06:46:39;3.30;99.90
56308;DHT22;42217;50.422;7.210;2022-12-07T06:49:05;3.30;99.90
56308;DHT22;42217;50.422;7.210;2022-12-07T06:51:32;3.30;99.90
56308;DHT22;42217;50.422;7.210;2022-12-07T06:54:00;3.30;99.90
56308;DHT22;42217;50.422;7.210;2022-12-07T06:56:26;3.30;99.90
56308;DHT22;42217;50.422;7.210;2022-12-07T06:58:52;3.30;99.90
56308;DHT22;42217;50.422;7.210;2022-12-07T07:01:18;3.50;99.90
56308;DHT22;42217;50.422;7.210;2022-12-07T07:03:45;3.50;99.90
56308;DHT22;42217;50.422;7.210;2022-12-07T07:06:11;3.60;99.90
56308;DHT22;42217;50.422;7.210;2022-12-07T07:08:38;3.50;99.90
56308;DHT22;42217;50.422;7.210;2022-12-07T07:11:05;3.50;99.90
56308;DHT22;42217;50.422;7.210;2022-12-07T07:13:31;3.40;99.90
56308;DHT22;42217;50.422;7.210;2022-12-07T07:15:57;3.30;99.90
56308;DHT22;42217;50.422;7.210;2022-12-07T07:18:23;3.40;99.90
56308;DHT22;42217;50.422;7.210;2022-12-07T07:20:50;3.40;99.90
56308;DHT22;42217;50.422;7.210;2022-12-07T07:23:16;3.40;99.90
56308;DHT22;42217;50.422;7.210;2022-12-07T07:25:42;3.40;99.90
56308;DHT22;42217;50.422;7.210;2022-12-07T07:28:08;3.30;99.90
56308;DHT22;42217;50.422;7.210;2022-12-07T07:30:33;3.30;99.90
56308;DHT22;42217;50.422;7.210;2022-12-07T07:33:03;3.30;99.90
56308;DHT22;42217;50.422;7.210;2022-12-07T07:35:31;3.30;99.90
56308;DHT22;42217;50.422;7.210;2022-12-07T07:37:57;3.40;99.90
56308;DHT22;42217;50.422;7.210;2022-12-07T07:40:23;3.40;99.90
56308;DHT22;42217;50.422;7.210;2022-12-07T07:42:50;3.50;99.90
56308;DHT22;42217;50.422;7.210;2022-12-07T07:45:17;3.50;99.90
56308;DHT22;42217;50.422;7.210;2022-12-07T07:47:43;3.60;99.90
56308;DHT22;42217;50.422;7.210;2022-12-07T07:50:09;3.60;99.90
56308;DHT22;42217;50.422;7.210;2022-12-07T07:52:34;3.50;99.90
56308;DHT22;42217;50.422;7.210;2022-12-07T07:55:00;3.50;99.90
56308;DHT22;42217;50.422;7.210;2022-12-07T07:57:26;3.40;99.90
56308;DHT22;42217;50.422;7.210;2022-12-07T07:59:52;3.30;99.90
56308;DHT22;42217;50.422;7.210;2022-12-07T08:02:21;3.20;99.90
56308;DHT22;42217;50.422;7.210;2022-12-07T08:04:47;3.10;99.90
56308;DHT22;42217;50.422;7.210;2022-12-07T08:07:14;3.10;99.90
56308;DHT22;42217;50.422;7.210;2022-12-07T08:09:40;3.10;99.90
56308;DHT22;42217;50.422;7.210;2022-12-07T08:12:06;3.10;99.90
56308;DHT22;42217;50.422;7.210;2022-12-07T08:14:32;3.10;99.90
56308;DHT22;42217;50.422;7.210;2022-12-07T08:16:58;3.10;99.90
56308;DHT22;42217;50.422;7.210;2022-12-07T08:19:24;3.20;99.90
56308;DHT22;42217;50.422;7.210;2022-12-07T08:21:49;3.30;99.90
56308;DHT22;42217;50.422;7.210;2022-12-07T08:24:16;3.30;99.90
56308;DHT22;42217;50.422;7.210;2022-12-07T08:26:42;3.30;99.90
56308;DHT22;42217;50.422;7.210;2022-12-07T08:29:08;3.40;99.90
56308;DHT22;42217;50.422;7.210;2022-12-07T08:31:33;3.40;99.90
56308;DHT22;42217;50.422;7.210;2022-12-07T08:33:59;3.50;99.90
56308;DHT22;42217;50.422;7.210;2022-12-07T08:36:25;3.60;99.90
56308;DHT22;42217;50.422;7.210;2022-12-07T08:38:50;3.60;99.90
56308;DHT22;42217;50.422;7.210;2022-12-07T08:41:16;3.70;99.90
56308;DHT22;42217;50.422;7.210;2022-12-07T08:43:42;3.80;99.90
56308;DHT22;42217;50.422;7.210;2022-12-07T08:46:49;3.90;99.90
56308;DHT22;42217;50.422;7.210;2022-12-07T08:49:22;4.00;99.90
56308;DHT22;42217;50.422;7.210;2022-12-07T08:51:48;4.00;99.90
56308;DHT22;42217;50.422;7.210;2022-12-07T08:54:16;4.10;99.90
56308;DHT22;42217;50.422;7.210;2022-12-07T08:56:42;4.20;99.90
56308;DHT22;42217;50.422;7.210;2022-12-07T08:59:09;4.20;99.90
56308;DHT22;42217;50.422;7.210;2022-12-07T09:01:35;4.20;99.90
56308;DHT22;42217;50.422;7.210;2022-12-07T09:04:00;4.30;99.90
56308;DHT22;42217;50.422;7.210;2022-12-07T09:06:26;4.30;99.90
56308;DHT22;42217;50.422;7.210;2022-12-07T09:08:56;4.40;99.90
56308;DHT22;42217;50.422;7.210;2022-12-07T09:11:22;4.40;99.90
56308;DHT22;42217;50.422;7.210;2022-12-07T09:13:48;4.40;99.90
56308;DHT22;42217;50.422;7.210;2022-12-07T09:16:14;4.30;99.90
56308;DHT22;42217;50.422;7.210;2022-12-07T09:18:39;4.40;99.90
56308;DHT22;42217;50.422;7.210;2022-12-07T09:21:05;4.50;99.90
56308;DHT22;42217;50.422;7.210;2022-12-07T09:23:31;4.50;99.90
56308;DHT22;42217;50.422;7.210;2022-12-07T09:26:01;4.60;99.90
56308;DHT22;42217;50.422;7.210;2022-12-07T09:28:27;4.50;99.90
56308;DHT22;42217;50.422;7.210;2022-12-07T09:30:52;4.60;99.90
56308;DHT22;42217;50.422;7.210;2022-12-07T09:33:18;4.70;99.90
56308;DHT22;42217;50.422;7.210;2022-12-07T09:35:45;4.70;99.90
56308;DHT22;42217;50.422;7.210;2022-12-07T09:38:11;4.80;99.90
56308;DHT22;42217;50.422;7.210;2022-12-07T09:40:37;4.90;99.90
56308;DHT22;42217;50.422;7.210;2022-12-07T09:43:03;5.00;99.90
56308;DHT22;42217;50.422;7.210;2022-12-07T09:45:38;5.20;99.90
56308;DHT22;42217;50.422;7.210;2022-12-07T09:48:04;5.20;99.90
56308;DHT22;42217;50.422;7.210;2022-12-07T09:50:30;5.10;99.90
56308;DHT22;42217;50.422;7.210;2022-12-07T09:53:09;5.00;99.90
56308;DHT22;42217;50.422;7.210;2022-12-07T09:55:38;5.00;99.90
56308;DHT22;42217;50.422;7.210;2022-12-07T09:58:05;4.80;99.90
56308;DHT22;42217;50.422;7.210;2022-12-07T10:00:31;4.60;99.90
56308;DHT22;42217;50.422;7.210;2022-12-07T10:02:59;4.50;99.90
56308;DHT22;42217;50.422;7.210;2022-12-07T10:05:31;4.50;99.90
56308;DHT22;42217;50.422;7.210;2022-12-07T10:07:57;4.60;99.90
56308;DHT22;42217;50.422;7.210;2022-12-07T10:10:26;4.70;99.90
56308;DHT22;42217;50.422;7.210;2022-12-07T10:12:58;4.80;99.90
56308;DHT22;42217;50.422;7.210;2022-12-07T10:15:42;4.90;99.90
56308;DHT22;42217;50.422;7.210;2022-12-07T10:18:37;4.90;99.90
56308;DHT22;42217;50.422;7.210;2022-12-07T10:21:24;5.00;99.90
56308;DHT22;42217;50.422;7.210;2022-12-07T10:24:03;5.10;99.90
56308;DHT22;42217;50.422;7.210;2022-12-07T10:31:56;5.10;99.90
56308;DHT22;42217;50.422;7.210;2022-12-07T10:44:48;5.30;99.90
56308;DHT22;42217;50.422;7.210;2022-12-07T10:47:29;5.20;99.90
56308;DHT22;42217;50.422;7.210;2022-12-07T11:00:55;5.20;99.90
56308;DHT22;42217;50.422;7.210;2022-12-07T11:17:18;4.90;99.90
56308;DHT22;42217;50.422;7.210;2022-12-07T11:19:59;4.80;99.90
56308;DHT22;42217;50.422;7.210;2022-12-07T11:22:41;4.80;99.90
56308;DHT22;42217;50.422;7.210;2022-12-07T11:28:07;4.70;99.90
56308;DHT22;42217;50.422;7.210;2022-12-07T11:33:29;4.80;99.90
56308;DHT22;42217;50.422;7.210;2022-12-07T11:38:44;4.70;99.90
56308;DHT22;42217;50.422;7.210;2022-12-07T11:41:11;4.70;99.90
56308;DHT22;42217;50.422;7.210;2022-12-07T11:46:51;4.80;99.90
56308;DHT22;42217;50.422;7.210;2022-12-07T11:49:27;4.80;99.90
56308;DHT22;42217;50.422;7.210;2022-12-07T11:52:02;4.80;99.90
56308;DHT22;42217;50.422;7.210;2022-12-07T11:54:36;4.80;99.90
56308;DHT22;42217;50.422;7.210;2022-12-07T11:57:13;4.90;99.90
56308;DHT22;42217;50.422;7.210;2022-12-07T11:59:50;5.00;99.90
56308;DHT22;42217;50.422;7.210;2022-12-07T12:03:12;5.10;99.90
56308;DHT22;42217;50.422;7.210;2022-12-07T12:05:19;5.10;99.90
56308;DHT22;42217;50.422;7.210;2022-12-07T12:07:53;5.00;99.90
56308;DHT22;42217;50.422;7.210;2022-12-07T12:10:32;5.10;99.90
56308;DHT22;42217;50.422;7.210;2022-12-07T12:13:09;5.00;99.90
56308;DHT22;42217;50.422;7.210;2022-12-07T12:21:02;5.00;99.90
56308;DHT22;42217;50.422;7.210;2022-12-07T12:26:01;5.30;99.90
56308;DHT22;42217;50.422;7.210;2022-12-07T12:33:55;5.00;99.90
56308;DHT22;42217;50.422;7.210;2022-12-07T12:46:58;4.60;99.90
56308;DHT22;42217;50.422;7.210;2022-12-07T12:54:25;4.50;99.90
56308;DHT22;42217;50.422;7.210;2022-12-07T12:57:17;4.50;99.90
56308;DHT22;42217;50.422;7.210;2022-12-07T13:02:29;4.50;99.90
56308;DHT22;42217;50.422;7.210;2022-12-07T13:10:31;4.60;99.90
56308;DHT22;42217;50.422;7.210;2022-12-07T13:20:53;4.20;99.90
56308;DHT22;42217;50.422;7.210;2022-12-07T13:23:52;4.20;99.90
56308;DHT22;42217;50.422;7.210;2022-12-07T13:31:55;3.90;99.90
56308;DHT22;42217;50.422;7.210;2022-12-07T13:37:01;3.80;99.90
56308;DHT22;42217;50.422;7.210;2022-12-07T13:39:27;3.70;99.90
56308;DHT22;42217;50.422;7.210;2022-12-07T13:41:58;3.60;99.90
56308;DHT22;42217;50.422;7.210;2022-12-07T13:44:26;3.50;99.90
56308;DHT22;42217;50.422;7.210;2022-12-07T13:49:54;3.50;99.90
56308;DHT22;42217;50.422;7.210;2022-12-07T13:52:29;3.40;99.90
56308;DHT22;42217;50.422;7.210;2022-12-07T13:54:59;3.40;99.90
56308;DHT22;42217;50.422;7.210;2022-12-07T13:57:27;3.40;99.90
56308;DHT22;42217;50.422;7.210;2022-12-07T13:59:53;3.50;99.90
56308;DHT22;42217;50.422;7.210;2022-12-07T14:02:24;3.50;99.90
56308;DHT22;42217;50.422;7.210;2022-12-07T14:04:51;3.50;99.90
56308;DHT22;42217;50.422;7.210;2022-12-07T14:07:21;3.50;99.90
56308;DHT22;42217;50.422;7.210;2022-12-07T14:10:03;3.60;99.90
56308;DHT22;42217;50.422;7.210;2022-12-07T14:12:31;3.60;99.90
56308;DHT22;42217;50.422;7.210;2022-12-07T14:14:58;3.60;99.90
56308;DHT22;42217;50.422;7.210;2022-12-07T14:17:26;3.70;99.90
56308;DHT22;42217;50.422;7.210;2022-12-07T14:19:55;3.70;99.90
56308;DHT22;42217;50.422;7.210;2022-12-07T14:27:38;4.10;99.90
56308;DHT22;42217;50.422;7.210;2022-12-07T14:30:06;4.10;99.90
56308;DHT22;42217;50.422;7.210;2022-12-07T14:32:34;4.10;99.90
56308;DHT22;42217;50.422;7.210;2022-12-07T14:35:11;4.00;99.90
56308;DHT22;42217;50.422;7.210;2022-12-07T14:37:38;4.10;99.90
56308;DHT22;42217;50.422;7.210;2022-12-07T14:40:04;4.10;99.90
56308;DHT22;42217;50.422;7.210;2022-12-07T14:42:31;4.10;99.90
56308;DHT22;42217;50.422;7.210;2022-12-07T14:44:58;4.10;99.90
56308;DHT22;42217;50.422;7.210;2022-12-07T14:47:25;4.10;99.90
56308;DHT22;42217;50.422;7.210;2022-12-07T14:49:52;4.10;99.90
56308;DHT22;42217;50.422;7.210;2022-12-07T14:52:21;4.00;99.90
56308;DHT22;42217;50.422;7.210;2022-12-07T14:54:48;3.80;99.90
56308;DHT22;42217;50.422;7.210;2022-12-07T14:57:14;3.80;99.90
56308;DHT22;42217;50.422;7.210;2022-12-07T14:59:40;3.80;99.90
56308;DHT22;42217;50.422;7.210;2022-12-07T15:02:06;3.70;99.90
56308;DHT22;42217;50.422;7.210;2022-12-07T15:04:32;3.80;99.90
56308;DHT22;42217;50.422;7.210;2022-12-07T15:07:00;3.70;99.90
56308;DHT22;42217;50.422;7.210;2022-12-07T15:09:27;3.80;99.90
56308;DHT22;42217;50.422;7.210;2022-12-07T15:11:53;3.70;99.90
56308;DHT22;42217;50.422;7.210;2022-12-07T15:14:19;3.60;99.90
56308;DHT22;42217;50.422;7.210;2022-12-07T15:16:47;3.60;99.90
56308;DHT22;42217;50.422;7.210;2022-12-07T15:19:19;3.60;99.90
56308;DHT22;42217;50.422;7.210;2022-12-07T15:21:48;3.60;99.90
56308;DHT22;42217;50.422;7.210;2022-12-07T15:24:14;3.60;99.90
56308;DHT22;42217;50.422;7.210;2022-12-07T15:26:40;3.60;99.90
56308;DHT22;42217;50.422;7.210;2022-12-07T15:29:06;3.50;99.90
56308;DHT22;42217;50.422;7.210;2022-12-07T15:31:33;3.50;99.90
56308;DHT22;42217;50.422;7.210;2022-12-07T15:33:59;3.50;99.90
56308;DHT22;42217;50.422;7.210;2022-12-07T15:36:27;3.50;99.90
56308;DHT22;42217;50.422;7.210;2022-12-07T15:38:53;3.50;99.90
56308;DHT22;42217;50.422;7.210;2022-12-07T15:41:20;3.50;99.90
56308;DHT22;42217;50.422;7.210;2022-12-07T15:43:45;3.50;99.90
56308;DHT22;42217;50.422;7.210;2022-12-07T15:46:31;3.60;99.90
56308;DHT22;42217;50.422;7.210;2022-12-07T15:48:58;3.60;99.90
56308;DHT22;42217;50.422;7.210;2022-12-07T15:51:24;3.60;99.90
56308;DHT22;42217;50.422;7.210;2022-12-07T15:53:50;3.60;99.90
56308;DHT22;42217;50.422;7.210;2022-12-07T15:56:15;3.50;99.90
56308;DHT22;42217;50.422;7.210;2022-12-07T15:58:41;3.60;99.90
56308;DHT22;42217;50.422;7.210;2022-12-07T16:01:15;3.60;99.90
56308;DHT22;42217;50.422;7.210;2022-12-07T16:03:41;3.60;99.90
56308;DHT22;42217;50.422;7.210;2022-12-07T16:06:07;3.60;99.90
56308;DHT22;42217;50.422;7.210;2022-12-07T16:08:33;3.60;99.90
56308;DHT22;42217;50.422;7.210;2022-12-07T16:11:08;3.60;99.90
56308;DHT22;42217;50.422;7.210;2022-12-07T16:13:34;3.60;99.90
56308;DHT22;42217;50.422;7.210;2022-12-07T16:16:06;3.60;99.90
56308;DHT22;42217;50.422;7.210;2022-12-07T16:18:32;3.60;99.90
56308;DHT22;42217;50.422;7.210;2022-12-07T16:20:59;3.60;99.90
56308;DHT22;42217;50.422;7.210;2022-12-07T16:23:26;3.60;99.90
56308;DHT22;42217;50.422;7.210;2022-12-07T16:25:52;3.50;99.90
56308;DHT22;42217;50.422;7.210;2022-12-07T16:28:17;3.50;99.90
56308;DHT22;42217;50.422;7.210;2022-12-07T16:30:43;3.60;99.90
56308;DHT22;42217;50.422;7.210;2022-12-07T16:33:10;3.50;99.90
56308;DHT22;42217;50.422;7.210;2022-12-07T16:35:38;3.50;99.90
56308;DHT22;42217;50.422;7.210;2022-12-07T16:38:06;3.40;99.90
56308;DHT22;42217;50.422;7.210;2022-12-07T16:40:32;3.50;99.90
56308;DHT22;42217;50.422;7.210;2022-12-07T16:42:58;3.50;99.90
56308;DHT22;42217;50.422;7.210;2022-12-07T16:45:24;3.40;99.90
56308;DHT22;42217;50.422;7.210;2022-12-07T16:47:49;3.40;99.90
56308;DHT22;42217;50.422;7.210;2022-12-07T16:50:15;3.40;99.90
56308;DHT22;42217;50.422;7.210;2022-12-07T16:52:41;3.40;99.90
56308;DHT22;42217;50.422;7.210;2022-12-07T16:55:07;3.40;99.90
56308;DHT22;42217;50.422;7.210;2022-12-07T16:57:32;3.40;99.90
56308;DHT22;42217;50.422;7.210;2022-12-07T16:59:58;3.40;99.90
56308;DHT22;42217;50.422;7.210;2022-12-07T17:02:24;3.40;99.90
56308;DHT22;42217;50.422;7.210;2022-12-07T17:04:51;3.40;99.90
56308;DHT22;42217;50.422;7.210;2022-12-07T17:07:16;3.50;99.90
56308;DHT22;42217;50.422;7.210;2022-12-07T17:09:42;3.50;99.90
56308;DHT22;42217;50.422;7.210;2022-12-07T17:12:08;3.50;99.90
56308;DHT22;42217;50.422;7.210;2022-12-07T17:14:33;3.40;99.90
56308;DHT22;42217;50.422;7.210;2022-12-07T17:17:17;3.50;99.90
56308;DHT22;42217;50.422;7.210;2022-12-07T17:19:43;3.50;99.90
56308;DHT22;42217;50.422;7.210;2022-12-07T17:22:09;3.40;99.90
56308;DHT22;42217;50.422;7.210;2022-12-07T17:24:38;3.40;99.90
56308;DHT22;42217;50.422;7.210;2022-12-07T17:27:03;3.40;99.90
56308;DHT22;42217;50.422;7.210;2022-12-07T17:29:29;3.30;99.90
56308;DHT22;42217;50.422;7.210;2022-12-07T17:31:54;3.20;99.90
56308;DHT22;42217;50.422;7.210;2022-12-07T17:34:20;3.20;99.90
56308;DHT22;42217;50.422;7.210;2022-12-07T17:36:46;3.30;99.90
56308;DHT22;42217;50.422;7.210;2022-12-07T17:39:15;3.30;99.90
56308;DHT22;42217;50.422;7.210;2022-12-07T17:41:41;3.30;99.90
56308;DHT22;42217;50.422;7.210;2022-12-07T17:44:27;3.30;99.90
56308;DHT22;42217;50.422;7.210;2022-12-07T17:46:53;3.30;99.90
56308;DHT22;42217;50.422;7.210;2022-12-07T17:49:27;3.30;99.90
56308;DHT22;42217;50.422;7.210;2022-12-07T17:51:53;3.30;99.90
56308;DHT22;42217;50.422;7.210;2022-12-07T17:54:37;3.40;99.90
56308;DHT22;42217;50.422;7.210;2022-12-07T17:57:03;3.40;99.90
56308;DHT22;42217;50.422;7.210;2022-12-07T17:59:29;3.50;99.90
56308;DHT22;42217;50.422;7.210;2022-12-07T18:01:54;3.50;99.90
56308;DHT22;42217;50.422;7.210;2022-12-07T18:04:20;3.50;99.90
56308;DHT22;42217;50.422;7.210;2022-12-07T18:06:46;3.50;99.90
56308;DHT22;42217;50.422;7.210;2022-12-07T18:09:12;3.50;99.90
56308;DHT22;42217;50.422;7.210;2022-12-07T18:11:38;3.50;99.90
56308;DHT22;42217;50.422;7.210;2022-12-07T18:14:04;3.50;99.90
56308;DHT22;42217;50.422;7.210;2022-12-07T18:16:31;3.50;99.90
56308;DHT22;42217;50.422;7.210;2022-12-07T18:19:01;3.50;99.90
56308;DHT22;42217;50.422;7.210;2022-12-07T18:21:29;3.50;99.90
56308;DHT22;42217;50.422;7.210;2022-12-07T18:24:00;3.50;99.90
56308;DHT22;42217;50.422;7.210;2022-12-07T18:26:29;3.50;99.90
56308;DHT22;42217;50.422;7.210;2022-12-07T18:28:58;3.50;99.90